createdAt,value
2023-01-10T00:01:06.863Z,13.52
2023-01-10T00:04:10.095Z,13.40
2023-01-10T00:07:12.944Z,12.00
2023-01-10T00:10:15.796Z,11.27
2023-01-10T00:13:24.804Z,12.67
2023-01-10T00:16:27.286Z,12.43
2023-01-10T00:19:30.077Z,11.35
2023-01-10T00:22:32.773Z,12.10
2023-01-10T00:25:36.401Z,12.18
2023-01-10T00:28:39.588Z,11.73
2023-01-10T00:31:42.367Z,12.13
2023-01-10T00:34:45.688Z,11.38
2023-01-10T00:37:48.724Z,11.40
2023-01-10T00:40:51.271Z,13.82
2023-01-10T00:43:59.843Z,12.47
2023-01-10T00:47:02.366Z,11.82
2023-01-10T00:50:12.124Z,12.70
2023-01-10T00:53:14.691Z,12.33
2023-01-10T00:56:17.514Z,12.98
2023-01-10T00:59:20.444Z,11.93
2023-01-10T01:02:23.237Z,12.00
2023-01-10T01:05:27.260Z,12.05
2023-01-10T01:08:30.090Z,12.63
2023-01-10T01:11:32.670Z,11.57
2023-01-10T01:14:35.407Z,10.57
2023-01-10T01:17:37.928Z,12.63
2023-01-10T01:20:41.751Z,11.60
2023-01-10T01:23:44.509Z,11.70
2023-01-10T01:26:47.069Z,12.60
2023-01-10T01:29:49.793Z,12.07
2023-01-10T01:32:53.649Z,11.57
2023-01-10T01:35:56.746Z,12.50
2023-01-10T01:38:59.763Z,11.32
2023-01-10T01:42:02.593Z,11.43
2023-01-10T01:45:08.536Z,11.83
2023-01-10T01:48:22.974Z,12.13
2023-01-10T01:51:30.887Z,12.10
2023-01-10T01:54:34.673Z,11.03
2023-01-10T01:57:38.216Z,10.98
2023-01-10T02:00:41.759Z,10.98
2023-01-10T02:03:48.744Z,11.73
2023-01-10T02:06:53.738Z,12.70
2023-01-10T02:10:01.934Z,10.90
2023-01-10T02:13:07.470Z,12.30
2023-01-10T02:16:10.446Z,11.80
2023-01-10T02:19:43.374Z,12.05
2023-01-10T02:23:14.124Z,11.63
2023-01-10T02:27:03.484Z,11.47
2023-01-10T02:30:35.342Z,11.18
2023-01-10T02:33:44.028Z,10.95
2023-01-10T02:37:08.699Z,10.63
2023-01-10T02:40:22.158Z,10.90
2023-01-10T02:43:31.792Z,11.50
2023-01-10T02:46:37.279Z,10.70
2023-01-10T02:49:50.900Z,10.93
2023-01-10T02:52:53.871Z,10.57
2023-01-10T02:56:13.154Z,11.85
2023-01-10T02:59:38.396Z,10.63
2023-01-10T03:02:58.437Z,11.02
2023-01-10T03:06:16.496Z,10.60
2023-01-10T03:09:34.301Z,11.30
2023-01-10T03:12:40.270Z,11.05
2023-01-10T03:15:45.000Z,9.18
2023-01-10T03:19:08.652Z,10.48
2023-01-10T03:22:12.760Z,11.17
2023-01-10T03:25:17.481Z,11.32
2023-01-10T03:28:29.900Z,10.55
2023-01-10T03:31:45.019Z,10.83
2023-01-10T03:34:48.080Z,10.43
2023-01-10T03:37:57.240Z,10.32
2023-01-10T03:41:13.434Z,9.95
2023-01-10T03:44:44.651Z,11.20
2023-01-10T03:47:52.002Z,10.50
2023-01-10T03:50:55.891Z,11.45
2023-01-10T03:54:02.805Z,9.57
2023-01-10T03:57:06.138Z,10.75
2023-01-10T04:00:10.599Z,10.43
2023-01-10T04:03:13.613Z,11.13
2023-01-10T04:06:17.863Z,9.77
2023-01-10T04:09:21.169Z,10.73
2023-01-10T04:12:24.649Z,9.63
2023-01-10T04:15:27.387Z,9.82
2023-01-10T04:18:30.375Z,10.35
2023-01-10T04:21:32.823Z,10.30
2023-01-10T04:24:36.033Z,10.57
2023-01-10T04:27:38.427Z,11.30
2023-01-10T04:30:42.270Z,10.32
2023-01-10T04:33:45.152Z,10.47
2023-01-10T04:36:50.536Z,10.90
2023-01-10T04:39:53.443Z,10.98
2023-01-10T04:42:56.188Z,12.02
2023-01-10T04:45:59.017Z,12.35
2023-01-10T04:49:02.302Z,12.07
2023-01-10T04:52:04.840Z,11.15
2023-01-10T04:55:07.918Z,12.50
2023-01-10T04:58:10.495Z,12.25
2023-01-10T05:01:16.125Z,11.60
2023-01-10T05:04:20.779Z,12.77
2023-01-10T05:07:23.622Z,11.23
2023-01-10T05:10:26.507Z,13.48
2023-01-10T05:13:29.395Z,13.95
2023-01-10T05:16:32.049Z,13.20
2023-01-10T05:19:34.837Z,15.25
2023-01-10T05:22:37.221Z,12.45
2023-01-10T05:25:40.274Z,13.03
2023-01-10T05:28:43.449Z,12.60
2023-01-10T05:31:46.311Z,13.15
2023-01-10T05:34:49.146Z,13.80
2023-01-10T05:37:52.056Z,13.77
2023-01-10T05:40:57.520Z,13.32
2023-01-10T05:44:01.541Z,12.80
2023-01-10T05:47:04.160Z,12.10
2023-01-10T05:50:07.703Z,12.75
2023-01-10T05:53:10.411Z,13.40
2023-01-10T05:56:13.154Z,12.47
2023-01-10T05:59:27.530Z,11.43
2023-01-10T06:02:30.779Z,11.45
2023-01-10T06:05:33.492Z,10.80
2023-01-10T06:08:37.302Z,10.90
2023-01-10T06:11:40.582Z,11.70
2023-01-10T06:14:43.520Z,10.88
2023-01-10T06:17:46.107Z,9.95
2023-01-10T06:20:50.231Z,11.35
2023-01-10T06:23:52.688Z,10.23
2023-01-10T06:26:55.307Z,10.90
2023-01-10T06:29:59.649Z,10.25
2023-01-10T06:33:03.184Z,10.82
2023-01-10T06:36:05.937Z,11.57
2023-01-10T06:39:08.455Z,11.75
2023-01-10T06:42:11.369Z,11.88
2023-01-10T06:45:13.841Z,11.70
2023-01-10T06:48:16.864Z,11.82
2023-01-10T06:51:20.421Z,12.02
2023-01-10T06:54:23.271Z,11.40
2023-01-10T06:57:25.752Z,10.57
2023-01-10T07:00:30.028Z,10.70
2023-01-10T07:03:32.768Z,11.20
2023-01-10T07:06:39.522Z,12.43
2023-01-10T07:09:42.092Z,12.15
2023-01-10T07:12:45.155Z,11.98
2023-01-10T07:15:48.496Z,13.02
2023-01-10T07:18:51.280Z,12.50
2023-01-10T07:21:53.706Z,12.75
2023-01-10T07:24:56.533Z,12.35
2023-01-10T07:27:59.051Z,11.30
2023-01-10T07:31:03.434Z,12.30
2023-01-10T07:34:06.164Z,12.05
2023-01-10T07:37:09.032Z,12.83
2023-01-10T07:40:11.965Z,11.63
2023-01-10T07:43:15.343Z,12.85
2023-01-10T07:46:17.893Z,12.85
2023-01-10T07:49:20.525Z,12.80
2023-01-10T07:52:23.472Z,12.20
2023-01-10T07:55:26.192Z,10.80
2023-01-10T07:58:29.812Z,10.83
2023-01-10T08:01:33.118Z,10.57
2023-01-10T08:04:36.503Z,10.05
2023-01-10T08:07:39.196Z,9.97
2023-01-10T08:10:41.930Z,10.77
2023-01-10T08:13:45.050Z,10.32
2023-01-10T08:16:47.588Z,10.18
2023-01-10T08:19:50.157Z,9.90
2023-01-10T08:22:52.820Z,10.60
2023-01-10T08:25:58.910Z,10.23
2023-01-10T08:29:01.545Z,11.40
2023-01-10T08:32:04.126Z,10.88
2023-01-10T08:35:07.191Z,11.15
2023-01-10T08:38:10.807Z,9.73
2023-01-10T08:41:13.840Z,10.73
2023-01-10T08:44:16.718Z,9.38
2023-01-10T08:47:19.134Z,9.18
2023-01-10T08:50:22.781Z,9.65
2023-01-10T08:53:31.424Z,10.02
2023-01-10T08:56:36.865Z,9.45
2023-01-10T08:59:39.498Z,9.03
2023-01-10T09:02:43.069Z,9.57
2023-01-10T09:05:45.622Z,6.38
2023-01-10T09:08:48.188Z,5.67
2023-01-10T09:11:50.704Z,6.53
2023-01-10T09:14:54.039Z,6.00
2023-01-10T09:17:58.401Z,5.20
2023-01-10T09:21:01.255Z,5.30
2023-01-10T09:24:04.190Z,3.65
2023-01-10T09:27:07.017Z,5.70
2023-01-10T09:30:10.260Z,5.27
2023-01-10T09:33:13.758Z,5.28
2023-01-10T09:36:16.466Z,5.53
2023-01-10T09:39:19.201Z,4.80
2023-01-10T09:42:42.792Z,5.00
2023-01-10T09:45:56.605Z,5.60
2023-01-10T09:49:17.757Z,4.93
2023-01-10T09:52:25.082Z,5.45
2023-01-10T09:55:33.810Z,4.80
2023-01-10T09:58:38.771Z,4.03
2023-01-10T10:01:41.428Z,4.00
2023-01-10T10:04:49.756Z,4.35
2023-01-10T10:07:58.693Z,4.28
2023-01-10T10:11:28.423Z,6.27
2023-01-10T10:14:56.004Z,3.72
2023-01-10T10:18:14.048Z,2.95
2023-01-10T10:21:28.589Z,3.47
2023-01-10T10:25:04.754Z,2.80
2023-01-10T10:28:13.260Z,2.80
2023-01-10T10:31:27.806Z,2.55
2023-01-10T10:34:37.442Z,1.20
2023-01-10T10:37:45.931Z,1.70
2023-01-10T10:40:50.327Z,1.65
2023-01-10T10:43:54.745Z,0.80
2023-01-10T10:46:59.657Z,1.35
2023-01-10T10:50:18.686Z,0.60
2023-01-10T10:53:21.585Z,0.28
2023-01-10T10:56:26.728Z,0.45
2023-01-10T10:59:29.318Z,0.60
2023-01-10T11:02:39.389Z,0.50
2023-01-10T11:05:45.530Z,0.27
2023-01-10T11:08:52.890Z,0.60
2023-01-10T11:11:56.915Z,0.28
2023-01-10T11:15:00.155Z,0.40
2023-01-10T11:18:14.504Z,0.30
2023-01-10T11:21:20.371Z,0.32
2023-01-10T11:24:34.014Z,0.40
2023-01-10T11:27:51.571Z,0.45
2023-01-10T11:30:55.621Z,0.00
2023-01-10T11:33:59.298Z,0.25
2023-01-10T11:37:18.590Z,0.43
2023-01-10T11:40:45.776Z,0.50
2023-01-10T11:43:48.187Z,0.43
2023-01-10T11:46:54.694Z,0.63
2023-01-10T11:50:00.169Z,0.90
2023-01-10T11:53:05.016Z,0.55
2023-01-10T11:56:11.418Z,0.45
2023-01-10T11:59:17.245Z,0.43
2023-01-10T12:02:26.236Z,0.45
2023-01-10T12:05:29.259Z,0.82
2023-01-10T12:08:36.968Z,0.70
2023-01-10T12:11:39.707Z,1.90
2023-01-10T12:14:42.190Z,0.50
2023-01-10T12:17:44.666Z,1.30
2023-01-10T12:20:52.665Z,1.25
2023-01-10T12:23:58.743Z,1.35
2023-01-10T12:27:04.004Z,1.08
2023-01-10T12:30:50.299Z,1.13
2023-01-10T12:34:07.845Z,0.95
2023-01-10T12:37:22.493Z,2.15
2023-01-10T12:40:34.311Z,0.83
2023-01-10T12:44:00.288Z,0.82
2023-01-10T12:47:25.627Z,0.70
2023-01-10T12:50:37.258Z,0.80
2023-01-10T12:53:55.737Z,0.47
2023-01-10T12:57:14.448Z,0.80
2023-01-10T13:00:24.487Z,0.65
2023-01-10T13:03:33.573Z,0.70
2023-01-10T13:06:40.024Z,1.25
2023-01-10T13:09:44.304Z,0.90
2023-01-10T13:12:55.207Z,0.80
2023-01-10T13:16:29.665Z,1.48
2023-01-10T13:19:32.164Z,0.28
2023-01-10T13:22:38.352Z,0.67
2023-01-10T13:25:41.310Z,0.95
2023-01-10T13:28:58.752Z,1.15
2023-01-10T13:32:02.691Z,0.90
2023-01-10T13:35:18.201Z,1.13
2023-01-10T13:38:30.897Z,1.02
2023-01-10T13:42:17.283Z,0.80
2023-01-10T13:45:21.338Z,0.57
2023-01-10T13:48:27.074Z,0.63
2023-01-10T13:51:31.884Z,0.60
2023-01-10T13:54:35.109Z,0.20
2023-01-10T13:57:55.755Z,0.15
2023-01-10T14:01:20.443Z,0.57
2023-01-10T14:04:30.075Z,0.65
2023-01-10T14:07:51.066Z,0.70
2023-01-10T14:11:13.141Z,0.30
2023-01-10T14:14:39.797Z,0.57
2023-01-10T14:17:42.440Z,0.60
2023-01-10T14:20:55.862Z,0.90
2023-01-10T14:23:59.149Z,0.68
2023-01-10T14:27:03.350Z,0.40
2023-01-10T14:30:06.846Z,0.40
2023-01-10T14:33:20.398Z,0.20
2023-01-10T14:36:31.620Z,0.40
2023-01-10T14:39:35.529Z,0.32
2023-01-10T14:42:38.334Z,0.47
2023-01-10T14:45:48.146Z,0.80
2023-01-10T14:48:53.411Z,0.60
2023-01-10T14:52:13.362Z,0.80
2023-01-10T14:55:18.440Z,0.73
2023-01-10T14:58:22.954Z,0.70
2023-01-10T15:01:28.794Z,0.63
2023-01-10T15:04:33.799Z,1.42
2023-01-10T15:07:37.832Z,0.70
2023-01-10T15:10:43.803Z,0.47
2023-01-10T15:13:52.262Z,1.33
2023-01-10T15:17:02.205Z,1.15
2023-01-10T15:20:05.841Z,0.47
2023-01-10T15:23:14.595Z,0.93
2023-01-10T15:26:35.440Z,0.77
2023-01-10T15:29:44.610Z,0.60
2023-01-10T15:32:50.289Z,0.75
2023-01-10T15:35:53.713Z,1.35
2023-01-10T15:38:56.531Z,0.57
2023-01-10T15:42:03.810Z,0.60
2023-01-10T15:45:31.143Z,0.60
2023-01-10T15:48:36.105Z,0.63
2023-01-10T15:51:39.578Z,0.60
2023-01-10T15:54:44.436Z,0.90
2023-01-10T15:57:51.723Z,0.20
2023-01-10T16:00:56.502Z,0.23
2023-01-10T16:04:02.817Z,0.50
2023-01-10T16:07:09.006Z,0.32
2023-01-10T16:10:28.038Z,0.60
2023-01-10T16:13:33.115Z,0.70
2023-01-10T16:16:35.994Z,1.13
2023-01-10T16:19:58.470Z,1.40
2023-01-10T16:23:02.338Z,1.37
2023-01-10T16:26:06.848Z,1.10
2023-01-10T16:29:11.806Z,4.35
2023-01-10T16:32:14.872Z,7.10
2023-01-10T16:35:18.571Z,7.75
2023-01-10T16:38:22.415Z,4.85
2023-01-10T16:41:43.842Z,5.53
2023-01-10T16:44:46.377Z,2.70
2023-01-10T16:47:48.941Z,3.55
2023-01-10T16:50:51.913Z,2.13
2023-01-10T16:53:55.224Z,2.07
2023-01-10T16:56:57.839Z,2.53
2023-01-10T17:00:00.490Z,2.28
2023-01-10T17:03:06.936Z,5.83
2023-01-10T17:06:12.615Z,3.33
2023-01-10T17:09:33.167Z,3.08
2023-01-10T17:12:38.329Z,3.67
2023-01-10T17:15:40.815Z,2.83
2023-01-10T17:18:43.700Z,20.15
2023-01-10T17:21:46.944Z,6.63
2023-01-10T17:24:49.757Z,11.77
2023-01-10T17:27:52.422Z,6.85
2023-01-10T17:30:55.677Z,4.03
2023-01-10T17:33:58.336Z,2.03
2023-01-10T17:37:01.142Z,1.60
2023-01-10T17:40:05.569Z,1.80
2023-01-10T17:43:09.178Z,1.52
2023-01-10T17:46:12.699Z,1.05
2023-01-10T17:49:15.385Z,1.20
2023-01-10T17:52:18.400Z,1.80
2023-01-10T17:55:20.944Z,1.57
2023-01-10T17:58:23.529Z,2.03
2023-01-10T18:01:26.550Z,1.25
2023-01-10T18:04:30.005Z,1.60
2023-01-10T18:07:33.005Z,1.45
2023-01-10T18:10:35.541Z,2.10
2023-01-10T18:13:38.296Z,3.20
2023-01-10T18:16:40.806Z,3.30
2023-01-10T18:19:44.582Z,3.20
2023-01-10T18:23:05.671Z,3.65
2023-01-10T18:26:10.798Z,3.23
2023-01-10T18:29:13.740Z,11.45
2023-01-10T18:32:16.799Z,12.57
2023-01-10T18:35:19.735Z,16.60
2023-01-10T18:38:23.034Z,13.70
2023-01-10T18:41:25.799Z,16.60
2023-01-10T18:44:28.748Z,11.00
2023-01-10T18:47:31.642Z,7.32
2023-01-10T18:50:34.498Z,6.10
2023-01-10T18:53:37.183Z,7.10
2023-01-10T18:56:39.843Z,7.97
2023-01-10T18:59:42.611Z,8.63
2023-01-10T19:02:46.280Z,7.07
2023-01-10T19:05:49.812Z,5.60
2023-01-10T19:08:52.983Z,4.57
2023-01-10T19:11:56.127Z,4.15
2023-01-10T19:15:00.717Z,3.05
2023-01-10T19:18:03.666Z,3.97
2023-01-10T19:21:07.653Z,3.63
2023-01-10T19:24:21.819Z,3.70
2023-01-10T19:27:24.748Z,3.00
2023-01-10T19:30:28.273Z,3.90
2023-01-10T19:33:33.023Z,4.13
2023-01-10T19:36:35.694Z,4.07
2023-01-10T19:39:38.371Z,3.65
2023-01-10T19:42:41.293Z,3.30
2023-01-10T19:45:43.999Z,2.80
2023-01-10T19:48:46.856Z,3.38
2023-01-10T19:51:56.221Z,2.53
2023-01-10T19:54:58.903Z,4.43
2023-01-10T19:58:02.307Z,3.00
2023-01-10T20:01:20.600Z,4.10
2023-01-10T20:04:23.570Z,4.55
2023-01-10T20:07:26.588Z,4.70
2023-01-10T20:10:29.544Z,3.35
2023-01-10T20:13:37.565Z,6.63
2023-01-10T20:16:40.270Z,5.43
2023-01-10T20:19:42.961Z,5.90
2023-01-10T20:22:45.731Z,5.80
2023-01-10T20:26:22.234Z,7.30
2023-01-10T20:29:25.117Z,4.47
2023-01-10T20:32:28.401Z,4.15
2023-01-10T20:35:31.221Z,5.72
2023-01-10T20:38:35.550Z,4.83
2023-01-10T20:41:38.821Z,2.38
2023-01-10T20:44:41.288Z,5.35
2023-01-10T20:47:43.974Z,2.92
2023-01-10T20:50:47.106Z,2.55
2023-01-10T20:53:51.233Z,1.35
2023-01-10T20:56:53.659Z,1.80
2023-01-10T20:59:56.259Z,1.27
2023-01-10T21:02:58.925Z,1.42
2023-01-10T21:06:02.130Z,1.33
2023-01-10T21:09:05.882Z,1.93
2023-01-10T21:12:22.203Z,1.00
2023-01-10T21:15:25.556Z,1.42
2023-01-10T21:18:34.589Z,1.02
2023-01-10T21:21:38.342Z,1.52
2023-01-10T21:24:42.953Z,1.98
2023-01-10T21:27:45.464Z,3.35
2023-01-10T21:30:48.096Z,1.47
2023-01-10T21:33:50.716Z,2.13
2023-01-10T21:36:54.446Z,1.45
2023-01-10T21:39:57.186Z,1.63
2023-01-10T21:43:00.511Z,2.40
2023-01-10T21:46:03.191Z,2.75
2023-01-10T21:49:06.194Z,0.88
2023-01-10T21:52:08.680Z,1.48
2023-01-10T21:55:14.469Z,2.67
2023-01-10T21:58:17.325Z,2.15
2023-01-10T22:01:19.941Z,2.37
2023-01-10T22:04:22.661Z,2.20
2023-01-10T22:07:27.437Z,2.53
2023-01-10T22:10:30.322Z,2.13
2023-01-10T22:13:33.122Z,2.30
2023-01-10T22:16:35.598Z,1.35
2023-01-10T22:19:39.178Z,1.77
2023-01-10T22:22:41.603Z,2.28
2023-01-10T22:25:44.561Z,1.95
2023-01-10T22:28:47.139Z,2.20
2023-01-10T22:31:50.829Z,2.23
2023-01-10T22:34:58.988Z,1.77
2023-01-10T22:38:01.954Z,1.58
2023-01-10T22:41:13.650Z,1.37
2023-01-10T22:44:23.049Z,1.20
2023-01-10T22:47:25.571Z,1.33
2023-01-10T22:50:28.738Z,1.38
2023-01-10T22:53:31.794Z,1.23
2023-01-10T22:56:35.070Z,2.17
2023-01-10T22:59:37.686Z,1.15
2023-01-10T23:02:40.426Z,1.27
2023-01-10T23:05:43.079Z,1.67
2023-01-10T23:08:46.607Z,1.15
2023-01-10T23:11:49.184Z,1.80
2023-01-10T23:14:52.404Z,1.10
2023-01-10T23:17:54.794Z,1.25
2023-01-10T23:20:57.800Z,1.42
2023-01-10T23:24:00.379Z,1.42
2023-01-10T23:27:03.037Z,1.42
2023-01-10T23:30:07.793Z,1.38
2023-01-10T23:33:10.533Z,1.67
2023-01-10T23:36:13.712Z,1.75
2023-01-10T23:39:19.088Z,1.17
2023-01-10T23:42:22.174Z,1.70
2023-01-10T23:45:25.018Z,1.48
2023-01-10T23:48:27.965Z,1.35
2023-01-10T23:51:31.358Z,1.48
2023-01-10T23:54:33.801Z,1.50
2023-01-10T23:57:36.585Z,1.58
